Time;durP1;ratioP1;P1;durP2;ratioP2;P2;SDS_P1;SDS_P2;PMS_P1;PMS_P2;Temp;Humidity;BMP_temperature;BMP_pressure;BME280_temperature;BME280_humidity;BME280_pressure;Samples;Min_cycle;Max_cycle;Signal;HPM_P1;HPM_P2
2023/01/13 00:00:44;;;;;;;1.50;0.77;;;20.60;70.80;;;;;;5033113;28;20079;-70
2023/01/13 00:03:10;;;;;;;3.22;0.80;;;20.60;70.80;;;;;;5031301;28;20049;-70
2023/01/13 00:05:36;;;;;;;3.65;1.05;;;20.70;70.90;;;;;;5028754;28;20022;-70
2023/01/13 00:08:04;;;;;;;1.75;0.85;;;20.70;71.00;;;;;;5012703;28;20049;-70
2023/01/13 00:10:29;;;;;;;2.92;0.82;;;20.60;71.00;;;;;;5012192;28;20029;-70
2023/01/13 00:12:55;;;;;;;2.65;0.93;;;20.70;71.00;;;;;;5011001;28;20034;-70
2023/01/13 00:15:21;;;;;;;3.22;1.00;;;20.70;70.90;;;;;;5012306;28;20087;-70
2023/01/13 00:17:47;;;;;;;2.25;1.05;;;20.70;71.10;;;;;;5012250;28;20025;-70
2023/01/13 00:20:13;;;;;;;1.98;0.80;;;20.70;71.00;;;;;;5011064;28;20056;-70
2023/01/13 00:22:39;;;;;;;1.83;0.80;;;20.70;71.10;;;;;;5012052;28;20054;-70
2023/01/13 00:25:05;;;;;;;2.05;0.73;;;20.70;71.00;;;;;;5012155;28;20080;-70
2023/01/13 00:27:31;;;;;;;3.00;0.82;;;20.70;71.00;;;;;;5012123;28;20022;-70
2023/01/13 00:29:57;;;;;;;2.15;1.10;;;20.70;70.90;;;;;;5011078;28;20054;-70
2023/01/13 00:32:22;;;;;;;2.72;0.90;;;20.70;70.90;;;;;;5011967;28;20109;-70
2023/01/13 00:34:48;;;;;;;2.03;0.90;;;20.70;70.90;;;;;;5010904;28;20029;-70
2023/01/13 00:37:14;;;;;;;1.95;0.88;;;20.70;70.90;;;;;;5011938;28;20053;-70
2023/01/13 00:39:40;;;;;;;1.77;0.60;;;20.70;70.90;;;;;;5011819;28;20500;-70
2023/01/13 00:44:51;;;;;;;1.55;1.00;;;20.80;71.00;;;;;;5010955;28;20033;-70
2023/01/13 00:47:17;;;;;;;3.22;1.10;;;20.80;71.00;;;;;;5010789;28;20025;-70
2023/01/13 00:49:43;;;;;;;3.35;1.15;;;20.80;71.00;;;;;;5011859;28;20068;-70
2023/01/13 00:52:10;;;;;;;2.45;0.85;;;20.80;71.00;;;;;;5010693;28;20022;-70
2023/01/13 00:54:35;;;;;;;1.98;0.77;;;20.80;71.00;;;;;;5011606;28;20064;-70
2023/01/13 00:57:02;;;;;;;3.08;1.20;;;20.80;71.10;;;;;;5011894;28;20522;-70
2023/01/13 00:59:28;;;;;;;2.90;1.08;;;20.80;71.10;;;;;;5030305;28;20408;-70
2023/01/13 01:01:53;;;;;;;2.85;0.85;;;20.80;71.20;;;;;;5031382;28;20045;-70
2023/01/13 01:04:19;;;;;;;2.63;0.90;;;20.80;71.30;;;;;;4984072;28;1349928;-70
2023/01/13 01:06:44;;;;;;;3.42;1.10;;;20.80;71.10;;;;;;5020575;28;20088;-70
2023/01/13 01:09:12;;;;;;;3.88;0.93;;;20.90;71.30;;;;;;5012244;28;20025;-70
2023/01/13 01:11:38;;;;;;;3.40;1.00;;;20.90;71.50;;;;;;5011228;28;20036;-70
2023/01/13 01:14:03;;;;;;;2.20;0.85;;;20.90;71.30;;;;;;5012424;28;20097;-70
2023/01/13 01:16:29;;;;;;;1.40;0.77;;;20.90;71.40;;;;;;5011335;28;20030;-70
2023/01/13 01:18:55;;;;;;;3.20;1.00;;;20.90;71.40;;;;;;5011116;28;20030;-70
2023/01/13 01:21:22;;;;;;;2.38;0.90;;;20.90;71.40;;;;;;5011257;28;20084;-70
2023/01/13 01:23:47;;;;;;;3.67;1.17;;;20.90;71.40;;;;;;5010936;28;20053;-70
2023/01/13 01:26:15;;;;;;;1.70;0.77;;;20.90;71.20;;;;;;5012385;28;20061;-70
2023/01/13 01:28:41;;;;;;;3.45;0.90;;;20.90;71.40;;;;;;5011141;28;20496;-70
2023/01/13 01:31:16;;;;;;;2.13;0.88;;;20.90;71.40;;;;;;5011161;28;20057;-70
2023/01/13 01:33:41;;;;;;;5.10;1.15;;;20.90;71.40;;;;;;5010892;28;20049;-70
2023/01/13 01:36:08;;;;;;;5.47;1.33;;;20.90;71.40;;;;;;5012283;28;20488;-70
2023/01/13 01:38:33;;;;;;;5.40;1.13;;;20.90;71.50;;;;;;5010721;28;20493;-70
2023/01/13 01:40:59;;;;;;;3.45;1.08;;;20.90;71.50;;;;;;5011207;28;20141;-70
2023/01/13 01:44:07;;;;;;;3.80;1.30;;;20.90;71.40;;;;;;5011025;28;20030;-70
2023/01/13 01:46:39;;;;;;;2.60;0.90;;;20.90;71.40;;;;;;5010048;28;20130;-70
2023/01/13 01:49:08;;;;;;;3.63;1.13;;;20.90;71.40;;;;;;4993594;28;20081;-70
2023/01/13 01:51:40;;;;;;;4.00;1.20;;;21.00;71.40;;;;;;5010006;28;20026;-70
2023/01/13 01:54:06;;;;;;;;;;;21.00;71.40;;;;;;4978087;28;20396;-70
2023/01/13 01:56:32;;;;;;;5.07;1.10;;;21.00;71.40;;;;;;5026434;28;19992;-70
2023/01/13 01:58:58;;;;;;;3.42;1.00;;;21.00;71.40;;;;;;4991991;28;20017;-70
2023/01/13 02:01:24;;;;;;;2.65;0.80;;;21.00;71.20;;;;;;5046272;28;20037;-70
2023/01/13 02:03:54;;;;;;;2.28;0.73;;;21.00;71.20;;;;;;5032038;28;20488;-69
2023/01/13 02:06:19;;;;;;;3.08;0.80;;;21.00;70.80;;;;;;5054141;28;20032;-69
2023/01/13 02:08:45;;;;;;;4.65;0.95;;;21.00;70.40;;;;;;5000055;28;20033;-69
2023/01/13 02:14:22;;;;;;;2.80;0.70;;;21.00;70.40;;;;;;5032956;28;20656;-70
2023/01/13 02:16:53;;;;;;;2.65;1.10;;;21.00;70.40;;;;;;5016700;28;20048;-70
2023/01/13 02:19:31;;;;;;;2.13;0.73;;;20.90;70.50;;;;;;5000530;28;20087;-69
2023/01/13 02:22:26;;;;;;;1.83;0.70;;;21.00;70.60;;;;;;5034813;28;20086;-69
2023/01/13 02:25:27;;;;;;;3.53;1.15;;;21.00;70.70;;;;;;5029222;28;20400;-69
2023/01/13 02:28:19;;;;;;;3.67;0.90;;;21.00;70.70;;;;;;5033912;28;20052;-69
2023/01/13 02:34:16;;;;;;;4.53;1.00;;;21.00;70.90;;;;;;5033824;28;20306;-69
2023/01/13 02:36:47;;;;;;;2.75;0.88;;;21.00;70.90;;;;;;5012534;28;20088;-69
2023/01/13 02:39:14;;;;;;;4.20;0.88;;;20.90;70.90;;;;;;5012840;28;20536;-69
2023/01/13 02:44:47;;;;;;;6.63;1.30;;;21.00;71.10;;;;;;4986034;28;20088;-69
2023/01/13 02:47:22;;;;;;;3.53;0.90;;;20.90;71.10;;;;;;4997743;28;20488;-69
2023/01/13 02:50:07;;;;;;;1.45;0.65;;;20.90;71.00;;;;;;4980411;28;20063;-69
2023/01/13 02:52:42;;;;;;;2.33;0.82;;;20.90;71.00;;;;;;4981703;28;20217;-69
2023/01/13 02:55:15;;;;;;;3.13;0.90;;;20.90;70.90;;;;;;5012396;28;20057;-69
2023/01/13 02:57:41;;;;;;;4.07;1.10;;;20.90;71.00;;;;;;4979773;28;20436;-69
2023/01/13 03:00:08;;;;;;;2.33;1.00;;;20.90;71.00;;;;;;4979904;28;20037;-69
2023/01/13 03:02:34;;;;;;;2.53;1.10;;;20.90;70.90;;;;;;4995698;28;20050;-70
2023/01/13 03:05:00;;;;;;;2.90;0.90;;;20.90;71.10;;;;;;4995810;28;20034;-69
2023/01/13 03:07:45;;;;;;;3.13;0.95;;;20.90;70.80;;;;;;4976331;28;20030;-69
2023/01/13 03:10:17;;;;;;;2.47;1.08;;;20.90;70.70;;;;;;5001715;28;20030;-70
2023/01/13 03:13:21;;;;;;;3.00;0.95;;;20.90;70.70;;;;;;5014136;28;20097;-70
2023/01/13 03:15:53;;;;;;;4.90;1.05;;;20.90;70.70;;;;;;5013066;28;20041;-70
2023/01/13 03:18:28;;;;;;;3.60;0.95;;;20.90;70.90;;;;;;5029634;28;20084;-70
2023/01/13 03:21:03;;;;;;;1.73;0.85;;;20.90;71.00;;;;;;5014081;28;20036;-70
2023/01/13 03:23:30;;;;;;;1.35;0.70;;;20.90;71.00;;;;;;5029208;28;20040;-70
2023/01/13 03:26:09;;;;;;;3.25;1.00;;;20.90;70.90;;;;;;5029266;28;20099;-70
2023/01/13 03:28:41;;;;;;;2.75;1.02;;;20.90;70.90;;;;;;5029305;28;20516;-70
2023/01/13 03:31:11;;;;;;;2.47;0.93;;;20.90;70.90;;;;;;5029178;28;20491;-70
2023/01/13 03:33:40;;;;;;;3.30;0.80;;;20.90;71.00;;;;;;5028836;28;20025;-70
2023/01/13 03:36:08;;;;;;;2.22;0.80;;;20.90;71.00;;;;;;5029175;28;20472;-70
2023/01/13 03:38:39;;;;;;;5.45;1.10;;;20.90;70.90;;;;;;5028916;28;20057;-70
2023/01/13 03:41:08;;;;;;;2.55;1.00;;;20.90;71.00;;;;;;5029063;28;20049;-70
2023/01/13 03:46:28;;;;;;;3.00;1.20;;;20.90;71.10;;;;;;5026908;28;20084;-70
2023/01/13 03:48:54;;;;;;;3.60;1.05;;;20.90;71.10;;;;;;5028517;28;20499;-70
2023/01/13 03:51:20;;;;;;;2.15;0.70;;;20.90;71.00;;;;;;5028968;28;20164;-70
2023/01/13 03:53:52;;;;;;;3.00;0.95;;;20.90;71.00;;;;;;5028802;28;20547;-70
2023/01/13 03:56:33;;;;;;;3.05;0.85;;;20.90;70.90;;;;;;5028984;28;20022;-70
2023/01/13 03:58:59;;;;;;;3.35;1.00;;;20.90;71.00;;;;;;5031825;28;20643;-69
2023/01/13 04:01:28;;;;;;;2.17;0.90;;;20.90;70.90;;;;;;5031781;28;20056;-69
2023/01/13 04:03:57;;;;;;;2.72;0.73;;;20.90;71.90;;;;;;5031658;28;20048;-70
2023/01/13 04:06:34;;;;;;;2.92;1.00;;;20.90;70.90;;;;;;5023213;28;20480;-70
2023/01/13 04:09:29;;;;;;;2.72;1.20;;;20.90;71.00;;;;;;5012226;28;20366;-69
2023/01/13 04:12:09;;;;;;;2.35;0.93;;;20.90;71.00;;;;;;5012585;28;20504;-70
2023/01/13 04:14:34;;;;;;;4.47;0.98;;;20.90;71.20;;;;;;5011961;28;20022;-69
2023/01/13 04:17:00;;;;;;;3.83;0.98;;;20.90;71.20;;;;;;5011941;28;20018;-70
2023/01/13 04:19:26;;;;;;;10.18;1.20;;;20.90;71.30;;;;;;5011767;28;20108;-70
2023/01/13 04:21:51;;;;;;;4.35;1.00;;;20.90;71.20;;;;;;5012956;28;20104;-69
2023/01/13 04:24:17;;;;;;;2.90;0.90;;;20.90;71.10;;;;;;5013033;28;20026;-70
2023/01/13 04:26:43;;;;;;;4.00;1.00;;;20.90;71.10;;;;;;5012829;28;20018;-69
2023/01/13 04:29:08;;;;;;;2.20;0.65;;;21.00;71.20;;;;;;5012853;28;20021;-69
2023/01/13 04:31:34;;;;;;;1.95;0.70;;;20.90;71.20;;;;;;5012985;28;20034;-69
2023/01/13 04:33:59;;;;;;;2.45;0.90;;;20.90;71.20;;;;;;5012834;28;20022;-69
2023/01/13 04:36:26;;;;;;;2.38;0.80;;;20.90;71.20;;;;;;5012709;28;20029;-69
2023/01/13 04:38:53;;;;;;;4.28;1.05;;;20.90;71.20;;;;;;5012654;28;20049;-69
2023/01/13 04:41:19;;;;;;;2.35;0.75;;;20.90;71.20;;;;;;5012745;28;20026;-69
2023/01/13 04:43:44;;;;;;;2.83;0.88;;;20.90;71.20;;;;;;5012518;28;20155;-70
2023/01/13 04:46:10;;;;;;;3.78;1.08;;;20.90;71.20;;;;;;5012595;28;20109;-70
2023/01/13 04:48:35;;;;;;;3.05;0.93;;;20.90;71.00;;;;;;5012845;28;20030;-69
2023/01/13 04:51:01;;;;;;;2.60;0.90;;;20.90;71.10;;;;;;5012483;28;20084;-69
2023/01/13 04:53:27;;;;;;;3.33;0.90;;;20.90;71.10;;;;;;5012736;28;20032;-69
2023/01/13 04:55:52;;;;;;;2.70;0.75;;;20.90;71.20;;;;;;5012634;28;20034;-69
2023/01/13 04:58:18;;;;;;;4.68;1.33;;;20.90;71.10;;;;;;5021898;28;20021;-69
2023/01/13 05:00:43;;;;;;;1.60;0.65;;;20.90;71.00;;;;;;5031940;28;20037;-70
2023/01/13 05:03:09;;;;;;;5.53;0.90;;;20.90;70.90;;;;;;5030909;28;20088;-70
2023/01/13 05:05:35;;;;;;;2.13;0.85;;;20.90;70.90;;;;;;5030120;28;20075;-69
2023/01/13 05:08:00;;;;;;;3.80;1.13;;;20.90;70.90;;;;;;5012604;28;20064;-69
2023/01/13 05:10:26;;;;;;;3.20;0.80;;;20.90;70.90;;;;;;5012389;28;20026;-69
2023/01/13 05:18:22;;;;;;;4.15;1.00;;;20.90;70.70;;;;;;5011475;28;20456;-69
2023/01/13 05:20:48;;;;;;;2.83;1.23;;;20.90;70.80;;;;;;5011229;28;20026;-69
2023/01/13 05:25:58;;;;;;;1.58;0.70;;;20.90;71.10;;;;;;5012524;28;20040;-69
2023/01/13 05:28:24;;;;;;;4.05;1.00;;;20.90;71.20;;;;;;5012353;28;20018;-69
2023/01/13 05:30:51;;;;;;;2.80;0.75;;;20.90;71.30;;;;;;5010794;28;20026;-69
2023/01/13 05:33:17;;;;;;;3.95;1.40;;;20.90;71.30;;;;;;5011396;28;20026;-69
2023/01/13 05:35:44;;;;;;;3.10;0.90;;;20.90;71.20;;;;;;5010882;28;20026;-69
2023/01/13 05:38:09;;;;;;;5.55;1.30;;;20.90;71.20;;;;;;5013973;28;20033;-69
2023/01/13 05:43:23;;;;;;;2.13;0.80;;;20.90;71.00;;;;;;5016079;28;20109;-69
2023/01/13 05:46:03;;;;;;;4.13;0.82;;;20.90;71.00;;;;;;5014444;28;20022;-70
2023/01/13 05:48:36;;;;;;;2.10;0.98;;;20.80;71.00;;;;;;5014986;28;20014;-69
2023/01/13 05:51:02;;;;;;;2.80;0.80;;;20.80;70.90;;;;;;5014548;28;20053;-70
2023/01/13 05:53:28;;;;;;;1.85;0.73;;;20.90;71.00;;;;;;5014454;28;20022;-69
2023/01/13 05:55:54;;;;;;;2.97;1.33;;;20.80;71.00;;;;;;5014741;28;20029;-69
2023/01/13 05:58:21;;;;;;;3.45;1.08;;;20.90;71.10;;;;;;5025322;28;20080;-69
2023/01/13 06:00:46;;;;;;;2.45;0.90;;;20.90;71.20;;;;;;5033887;28;20113;-69
2023/01/13 06:03:12;;;;;;;4.97;1.17;;;20.80;71.00;;;;;;5034055;28;20116;-69
2023/01/13 06:05:38;;;;;;;2.53;0.70;;;20.80;71.10;;;;;;5031399;28;20037;-69
2023/01/13 06:08:04;;;;;;;3.90;1.02;;;20.90;71.00;;;;;;5015407;28;20049;-69
2023/01/13 06:10:30;;;;;;;5.40;1.17;;;20.90;71.10;;;;;;5014406;28;20033;-70
2023/01/13 06:12:56;;;;;;;3.80;0.93;;;20.80;71.10;;;;;;5014131;28;20034;-69
2023/01/13 06:15:21;;;;;;;2.10;0.88;;;20.90;71.10;;;;;;5014040;28;20026;-69
2023/01/13 06:17:47;;;;;;;2.38;0.90;;;20.90;71.20;;;;;;5013974;28;20087;-69
2023/01/13 06:20:14;;;;;;;4.10;0.90;;;20.80;71.00;;;;;;5014044;28;20535;-69
2023/01/13 06:22:42;;;;;;;1.73;0.70;;;20.80;70.90;;;;;;5015248;28;20017;-69
2023/01/13 06:25:20;;;;;;;3.35;1.30;;;20.80;71.10;;;;;;5015078;28;20022;-69
2023/01/13 06:27:46;;;;;;;4.13;1.17;;;20.80;71.10;;;;;;5013691;28;20026;-70
2023/01/13 06:30:12;;;;;;;2.85;0.88;;;20.80;71.10;;;;;;5013944;28;20022;-69
2023/01/13 06:32:40;;;;;;;4.55;0.90;;;20.80;71.10;;;;;;5015074;28;20026;-69
2023/01/13 06:35:08;;;;;;;3.78;1.15;;;20.80;71.10;;;;;;5013965;28;20061;-69
2023/01/13 06:37:33;;;;;;;2.33;1.00;;;20.80;71.00;;;;;;5013644;28;20053;-69
2023/01/13 06:40:01;;;;;;;2.97;1.08;;;20.90;71.10;;;;;;5013658;28;20080;-69
2023/01/13 06:45:12;;;;;;;4.22;1.00;;;20.80;71.10;;;;;;5013834;28;20029;-69
2023/01/13 06:47:38;;;;;;;2.58;0.93;;;20.80;71.00;;;;;;5019852;28;20030;-69
2023/01/13 06:50:04;;;;;;;3.13;1.00;;;20.80;71.20;;;;;;5033239;28;20030;-70
2023/01/13 06:52:29;;;;;;;3.58;1.08;;;20.80;71.00;;;;;;5033572;28;20021;-70
2023/01/13 06:54:58;;;;;;;2.58;1.10;;;20.80;71.00;;;;;;5034579;28;20508;-70
2023/01/13 06:57:24;;;;;;;2.22;0.80;;;20.80;70.90;;;;;;5034200;28;20018;-70
2023/01/13 06:59:49;;;;;;;2.15;1.00;;;20.80;70.90;;;;;;5033228;28;20025;-70
2023/01/13 07:02:15;;;;;;;4.20;1.02;;;20.80;70.90;;;;;;5032972;28;20029;-70
2023/01/13 07:04:41;;;;;;;4.07;0.98;;;20.80;71.00;;;;;;5033371;28;20052;-70
2023/01/13 07:07:07;;;;;;;2.53;0.98;;;20.80;70.90;;;;;;5018272;28;20022;-69
2023/01/13 07:09:33;;;;;;;3.38;1.10;;;20.80;70.40;;;;;;5014548;28;20076;-69
2023/01/13 07:11:58;;;;;;;3.33;1.30;;;20.70;66.60;;;;;;5014178;28;20496;-69
2023/01/13 07:17:08;;;;;;;4.97;1.50;;;20.40;67.60;;;;;;5028927;28;20087;-69
2023/01/13 07:19:34;;;;;;;2.83;0.82;;;20.40;67.90;;;;;;5031906;28;20037;-69
2023/01/13 07:21:59;;;;;;;3.22;0.70;;;20.30;68.90;;;;;;5033807;28;20523;-69
2023/01/13 07:24:25;;;;;;;4.40;1.35;;;20.30;67.90;;;;;;5033930;28;20108;-69
2023/01/13 07:26:51;;;;;;;5.05;1.15;;;20.20;67.80;;;;;;5033425;28;20014;-69
2023/01/13 07:29:17;;;;;;;3.75;0.82;;;20.20;67.70;;;;;;5033745;28;20017;-69
2023/01/13 07:31:42;;;;;;;4.45;1.00;;;20.20;67.80;;;;;;5033778;28;20452;-69
2023/01/13 07:34:08;;;;;;;4.97;1.13;;;20.20;67.80;;;;;;5032398;28;20056;-69
2023/01/13 07:36:34;;;;;;;5.57;1.10;;;20.20;68.00;;;;;;5032550;28;20040;-69
2023/01/13 07:38:59;;;;;;;4.07;1.10;;;20.10;68.00;;;;;;5033329;28;20041;-69
2023/01/13 07:44:09;;;;;;;5.53;1.48;;;20.10;68.00;;;;;;5032387;28;20075;-69
2023/01/13 07:46:36;;;;;;;4.03;1.23;;;20.10;68.10;;;;;;5032393;28;20100;-69
2023/01/13 07:49:02;;;;;;;41.55;6.10;;;20.00;68.00;;;;;;5031864;28;20040;-72
2023/01/13 07:51:28;;;;;;;40.75;7.55;;;20.00;68.10;;;;;;5033306;28;20064;-71
2023/01/13 07:53:53;;;;;;;18.52;4.22;;;20.00;68.90;;;;;;5032948;28;20491;-71
2023/01/13 07:56:19;;;;;;;13.88;3.63;;;20.00;69.00;;;;;;5031733;28;20096;-71
2023/01/13 07:58:49;;;;;;;21.40;3.45;;;20.00;69.00;;;;;;5030714;28;20025;-71
2023/01/13 08:01:15;;;;;;;14.60;3.33;;;20.00;69.00;;;;;;5030297;28;20136;-71
2023/01/13 08:03:41;;;;;;;17.95;4.15;;;20.00;69.00;;;;;;5030670;28;20052;-71
2023/01/13 08:06:07;;;;;;;11.60;3.08;;;20.00;69.00;;;;;;5029811;28;20014;-71
2023/01/13 08:08:33;;;;;;;17.15;3.50;;;19.90;68.90;;;;;;5022598;28;20112;-71
2023/01/13 08:10:59;;;;;;;17.80;3.75;;;19.90;68.90;;;;;;5031119;28;20101;-71
2023/01/13 08:13:25;;;;;;;11.45;2.95;;;19.90;68.90;;;;;;5031726;28;20044;-71
2023/01/13 08:15:52;;;;;;;12.93;2.80;;;19.90;68.90;;;;;;5031624;28;20022;-71
2023/01/13 08:18:20;;;;;;;11.18;2.97;;;19.90;68.80;;;;;;5031915;28;20025;-71
2023/01/13 08:20:47;;;;;;;18.15;3.83;;;19.90;68.90;;;;;;5031270;28;20024;-71
2023/01/13 08:23:13;;;;;;;11.93;3.03;;;19.80;68.60;;;;;;5032522;28;20021;-71
2023/01/13 08:25:38;;;;;;;10.68;3.13;;;19.80;68.70;;;;;;5031391;28;20471;-71
2023/01/13 08:28:04;;;;;;;10.73;2.80;;;19.90;68.60;;;;;;5032579;28;20029;-71
2023/01/13 08:30:30;;;;;;;14.40;3.33;;;19.80;68.50;;;;;;5031458;28;20025;-71
2023/01/13 08:32:55;;;;;;;11.20;3.22;;;19.80;68.50;;;;;;5032552;28;20029;-71
2023/01/13 08:35:21;;;;;;;12.73;3.40;;;19.80;68.50;;;;;;5031415;28;20051;-71
2023/01/13 08:37:47;;;;;;;14.95;3.22;;;19.80;68.60;;;;;;5032553;28;20071;-71
2023/01/13 08:40:13;;;;;;;13.40;3.25;;;19.80;68.40;;;;;;5030808;28;20013;-71
2023/01/13 08:42:39;;;;;;;13.05;3.17;;;19.80;68.50;;;;;;5031489;28;20022;-71
2023/01/13 08:45:05;;;;;;;13.27;2.90;;;19.80;68.50;;;;;;5031309;28;20020;-71
2023/01/13 08:47:31;;;;;;;11.75;3.22;;;19.80;68.50;;;;;;5031533;28;20022;-71
2023/01/13 08:49:56;;;;;;;7.57;2.47;;;19.80;68.50;;;;;;5032549;28;20457;-71
2023/01/13 08:52:22;;;;;;;10.40;3.15;;;19.80;68.50;;;;;;5032083;28;20029;-71
2023/01/13 08:54:48;;;;;;;12.68;3.03;;;19.80;68.40;;;;;;5030996;28;20028;-71
2023/01/13 08:57:14;;;;;;;15.20;2.80;;;19.80;68.40;;;;;;5032188;28;20108;-71
2023/01/13 08:59:40;;;;;;;11.43;3.10;;;19.80;68.40;;;;;;5031276;28;20028;-71
2023/01/13 09:02:12;;;;;;;8.27;2.53;;;19.80;68.50;;;;;;5030877;28;20402;-71
2023/01/13 09:04:37;;;;;;;14.63;3.00;;;19.70;68.40;;;;;;5031128;28;20044;-71
2023/01/13 09:07:03;;;;;;;10.88;2.90;;;19.80;68.40;;;;;;5030961;28;20026;-71
2023/01/13 09:09:29;;;;;;;12.30;3.53;;;19.70;68.40;;;;;;5030808;28;20018;-71
2023/01/13 09:14:39;;;;;;;10.20;3.00;;;19.70;68.20;;;;;;5027649;28;20029;-71
2023/01/13 09:17:06;;;;;;;10.90;2.70;;;19.70;68.20;;;;;;5015154;28;20400;-71
2023/01/13 09:19:31;;;;;;;8.52;2.47;;;19.70;68.20;;;;;;5015292;28;20014;-71
2023/01/13 09:21:57;;;;;;;9.10;2.53;;;19.70;68.30;;;;;;5016039;28;20506;-71
2023/01/13 09:24:23;;;;;;;7.18;2.53;;;19.70;68.30;;;;;;5016168;28;20037;-71
2023/01/13 09:26:48;;;;;;;9.27;3.25;;;19.70;68.20;;;;;;5016364;28;20030;-71
2023/01/13 09:29:14;;;;;;;10.55;2.60;;;19.70;68.20;;;;;;5014986;28;20480;-71
2023/01/13 09:31:40;;;;;;;7.45;2.40;;;19.70;68.20;;;;;;5015011;28;20022;-71
2023/01/13 09:36:50;;;;;;;7.80;2.47;;;19.70;68.20;;;;;;5014720;28;20056;-71
2023/01/13 09:39:16;;;;;;;10.00;2.60;;;19.70;68.10;;;;;;5014748;28;20026;-71
2023/01/13 09:44:39;;;;;;;9.57;2.70;;;19.70;68.20;;;;;;5014996;28;20033;-71
2023/01/13 09:47:08;;;;;;;12.30;3.30;;;19.70;68.20;;;;;;5014565;28;20029;-71
2023/01/13 09:49:36;;;;;;;8.75;2.72;;;19.70;68.20;;;;;;5014701;28;20014;-71
2023/01/13 09:52:06;;;;;;;8.45;2.60;;;19.70;68.10;;;;;;5014422;28;20058;-71
2023/01/13 09:54:45;;;;;;;6.25;1.88;;;19.70;68.10;;;;;;5014702;28;20076;-71
2023/01/13 09:57:15;;;;;;;9.60;2.67;;;19.70;68.10;;;;;;5014442;28;20021;-71
2023/01/13 09:59:41;;;;;;;9.60;2.70;;;19.70;68.20;;;;;;5035406;28;20029;-71
2023/01/13 10:02:28;;;;;;;11.93;2.75;;;19.70;68.20;;;;;;5033948;28;20563;-71
2023/01/13 10:05:24;;;;;;;8.70;2.60;;;19.70;68.20;;;;;;5035332;28;20041;-71
2023/01/13 10:08:04;;;;;;;9.52;2.08;;;19.70;68.20;;;;;;5033903;28;20033;-71
2023/01/13 10:10:38;;;;;;;8.15;2.55;;;19.60;68.10;;;;;;5034084;28;20026;-71
2023/01/13 10:13:18;;;;;;;8.52;2.28;;;19.70;68.20;;;;;;5035111;28;20105;-71
2023/01/13 10:16:07;;;;;;;9.57;2.13;;;19.70;68.20;;;;;;5016570;28;20034;-71
2023/01/13 10:18:57;;;;;;;7.40;2.53;;;19.60;68.10;;;;;;5014410;28;20068;-71
2023/01/13 10:21:56;;;;;;;8.05;2.88;;;19.60;68.20;;;;;;5013810;28;20041;-71
2023/01/13 10:24:32;;;;;;;10.73;2.60;;;19.70;68.20;;;;;;5014630;28;20088;-71
2023/01/13 10:27:17;;;;;;;7.82;2.70;;;19.60;68.10;;;;;;5014227;28;20109;-71
2023/01/13 10:29:43;;;;;;;6.65;2.17;;;19.60;68.00;;;;;;5013991;28;20481;-72
2023/01/13 10:32:09;;;;;;;10.02;2.58;;;19.60;68.10;;;;;;5013694;28;20029;-71
2023/01/13 10:34:49;;;;;;;6.72;2.53;;;19.60;68.10;;;;;;5014999;28;20068;-71
2023/01/13 10:37:22;;;;;;;7.82;2.38;;;19.60;68.10;;;;;;5014851;28;20022;-71
2023/01/13 10:39:48;;;;;;;7.65;2.42;;;19.60;68.10;;;;;;5013777;28;20049;-71
2023/01/13 10:42:16;;;;;;;9.02;2.30;;;19.60;68.00;;;;;;5013228;28;20400;-71
2023/01/13 10:44:49;;;;;;;6.60;2.03;;;19.60;68.10;;;;;;5013657;28;20032;-71
2023/01/13 10:47:23;;;;;;;6.82;2.28;;;19.60;68.10;;;;;;5014905;28;20040;-71
2023/01/13 10:50:05;;;;;;;7.07;2.20;;;19.60;68.00;;;;;;5013390;28;20049;-71
2023/01/13 10:52:35;;;;;;;6.95;2.05;;;19.60;68.00;;;;;;5013589;28;20505;-71
2023/01/13 10:55:01;;;;;;;6.18;1.90;;;19.60;68.00;;;;;;5014716;28;20505;-71
2023/01/13 10:57:27;;;;;;;7.38;2.03;;;19.60;68.00;;;;;;5015687;28;20529;-72
2023/01/13 10:59:53;;;;;;;5.00;1.70;;;19.60;68.00;;;;;;5034441;28;20167;-71
2023/01/13 11:02:30;;;;;;;6.38;2.63;;;19.60;68.00;;;;;;5032729;28;20125;-71
2023/01/13 11:04:56;;;;;;;6.45;1.85;;;19.60;68.00;;;;;;5032938;28;20376;-71
2023/01/13 11:07:37;;;;;;;5.82;1.98;;;19.70;68.00;;;;;;5034053;28;20013;-71
2023/01/13 11:10:12;;;;;;;7.03;2.00;;;19.60;67.90;;;;;;5032754;28;20377;-71
2023/01/13 11:12:56;;;;;;;7.70;2.38;;;19.60;68.00;;;;;;5034234;28;20025;-71
2023/01/13 11:15:49;;;;;;;5.60;2.03;;;19.60;67.90;;;;;;5018333;28;20064;-72
2023/01/13 11:18:27;;;;;;;6.30;1.90;;;19.60;67.90;;;;;;5011700;28;20500;-71
2023/01/13 11:20:53;;;;;;;6.93;1.80;;;19.60;67.80;;;;;;5014162;28;20034;-71
2023/01/13 11:23:40;;;;;;;4.22;1.77;;;19.60;67.90;;;;;;5012790;28;20400;-71
2023/01/13 11:26:29;;;;;;;4.55;1.83;;;19.60;67.90;;;;;;5012792;28;20075;-71
2023/01/13 11:28:57;;;;;;;7.82;2.22;;;19.60;67.90;;;;;;5012692;28;20034;-71
2023/01/13 11:31:25;;;;;;;6.30;1.67;;;19.70;68.00;;;;;;5013883;28;20029;-71
2023/01/13 11:33:58;;;;;;;6.93;1.80;;;19.60;67.90;;;;;;5012606;28;20037;-71
2023/01/13 11:36:37;;;;;;;6.47;2.20;;;19.70;67.90;;;;;;5011833;28;20030;-71
2023/01/13 11:39:42;;;;;;;7.35;2.10;;;19.70;67.90;;;;;;5012702;28;20049;-71
2023/01/13 11:42:19;;;;;;;6.38;1.90;;;19.60;67.80;;;;;;5001587;28;20065;-71
2023/01/13 11:45:21;;;;;;;7.22;2.20;;;19.60;67.70;;;;;;5012624;28;20025;-71
2023/01/13 11:47:49;;;;;;;4.43;1.90;;;19.60;67.70;;;;;;4999747;28;20029;-71
2023/01/13 11:50:27;;;;;;;6.65;2.00;;;19.60;67.80;;;;;;5013556;28;20033;-71
2023/01/13 11:53:25;;;;;;;5.57;1.70;;;19.60;67.80;;;;;;5012659;28;20022;-71
2023/01/13 11:56:03;;;;;;;4.50;1.75;;;19.70;67.70;;;;;;5001624;28;20041;-71
2023/01/13 11:58:57;;;;;;;5.10;2.00;;;19.70;67.70;;;;;;5023245;28;20029;-71
2023/01/13 12:02:02;;;;;;;4.70;1.88;;;19.60;67.60;;;;;;5031721;28;20053;-71
2023/01/13 12:04:32;;;;;;;8.25;2.00;;;19.60;67.50;;;;;;5031659;28;20037;-71
2023/01/13 12:07:14;;;;;;;4.95;1.75;;;19.60;67.50;;;;;;5031838;28;20021;-71
2023/01/13 12:10:07;;;;;;;4.70;1.85;;;19.60;67.60;;;;;;5031781;28;20030;-71
2023/01/13 12:12:48;;;;;;;5.93;1.70;;;19.60;67.50;;;;;;5032054;28;20017;-71
2023/01/13 12:15:22;;;;;;;5.32;1.92;;;19.60;67.50;;;;;;5019517;28;20064;-71
2023/01/13 12:18:06;;;;;;;5.07;1.80;;;19.60;67.60;;;;;;5012923;28;20029;-71
2023/01/13 12:20:50;;;;;;;6.38;1.95;;;19.60;67.50;;;;;;5013063;28;20033;-71
2023/01/13 12:23:39;;;;;;;5.90;2.13;;;19.70;67.60;;;;;;5012792;28;20054;-71
2023/01/13 12:26:12;;;;;;;4.65;1.90;;;19.60;67.40;;;;;;5011824;28;20026;-71
2023/01/13 12:29:01;;;;;;;4.03;1.70;;;19.60;67.40;;;;;;5013052;28;20021;-71
2023/01/13 12:31:27;;;;;;;6.15;1.73;;;19.60;67.30;;;;;;5011619;28;20033;-71
2023/01/13 12:34:03;;;;;;;6.55;1.95;;;19.60;67.30;;;;;;5011778;28;20026;-71
2023/01/13 12:36:50;;;;;;;4.35;1.90;;;19.60;67.20;;;;;;5012910;28;20115;-71
2023/01/13 12:39:15;;;;;;;5.40;1.90;;;19.60;67.20;;;;;;5011516;28;20022;-71
2023/01/13 12:44:33;;;;;;;6.60;1.55;;;19.60;67.40;;;;;;5011674;28;20404;-71
2023/01/13 12:46:59;;;;;;;4.60;2.20;;;19.60;67.30;;;;;;5012546;28;20485;-71
2023/01/13 12:49:32;;;;;;;6.43;1.85;;;19.60;67.20;;;;;;5011465;28;20383;-71
2023/01/13 12:51:58;;;;;;;5.32;2.17;;;19.60;67.20;;;;;;5011623;28;20036;-71
2023/01/13 12:54:39;;;;;;;7.57;2.08;;;19.60;67.30;;;;;;5012451;28;20057;-71
2023/01/13 12:57:22;;;;;;;4.00;1.45;;;19.60;68.20;;;;;;5012680;28;20025;-71
2023/01/13 13:00:14;;;;;;;4.20;1.80;;;19.60;67.20;;;;;;5027592;28;20096;-71
2023/01/13 13:02:41;;;;;;;5.05;1.98;;;19.70;67.10;;;;;;5011206;28;20046;-71
2023/01/13 13:05:13;;;;;;;4.85;1.70;;;19.70;67.30;;;;;;5011537;28;20026;-71
2023/01/13 13:08:00;;;;;;;6.10;2.17;;;19.60;67.10;;;;;;5012452;28;20420;-71
2023/01/13 13:10:39;;;;;;;4.45;1.50;;;19.70;67.10;;;;;;5008419;28;20038;-71
2023/01/13 13:13:39;;;;;;;5.82;1.95;;;19.60;67.20;;;;;;5011238;28;20061;-71
2023/01/13 13:16:24;;;;;;;5.28;1.52;;;19.60;67.10;;;;;;5011389;28;20538;-71
2023/01/13 13:18:49;;;;;;;4.70;2.10;;;19.70;67.20;;;;;;5012520;28;20105;-71
2023/01/13 13:21:15;;;;;;;4.28;1.73;;;19.60;67.00;;;;;;5011279;28;20304;-71
2023/01/13 13:24:02;;;;;;;4.43;1.83;;;19.70;67.00;;;;;;5011092;28;20530;-71
2023/01/13 13:26:36;;;;;;;6.82;1.67;;;19.70;67.00;;;;;;5011194;28;20025;-71
2023/01/13 13:29:10;;;;;;;5.45;1.75;;;19.70;67.10;;;;;;5011020;28;20472;-71
2023/01/13 13:31:59;;;;;;;4.35;1.48;;;19.70;67.20;;;;;;5011167;28;20026;-71
2023/01/13 13:34:48;;;;;;;5.00;1.65;;;19.70;67.00;;;;;;5010929;28;20481;-71
2023/01/13 13:46:46;;;;;;;4.13;1.60;;;19.70;67.00;;;;;;5012248;28;20080;-71
2023/01/13 13:49:13;;;;;;;5.07;2.25;;;19.70;67.00;;;;;;5026126;28;20125;-71
2023/01/13 13:51:56;;;;;;;4.57;1.77;;;19.70;66.90;;;;;;5026230;28;20022;-71
2023/01/13 13:54:22;;;;;;;6.22;1.65;;;19.70;67.20;;;;;;5026483;28;20042;-71
2023/01/13 13:56:49;;;;;;;4.32;1.60;;;19.70;67.10;;;;;;5026240;28;20025;-71
2023/01/13 13:59:22;;;;;;;6.10;1.65;;;19.70;67.00;;;;;;5027801;28;20053;-71